sensor_id;sensor_type;location;lat;lon;timestamp;pressure;altitude;pressure_sealevel;temperature;humidity
10310;BME280;5200;43.236;27.986;2024-01-16T00:02:18;98506.19;;;7.36;100.00
10310;BME280;5200;43.236;27.986;2024-01-16T00:04:46;98504.56;;;7.35;100.00
10310;BME280;5200;43.236;27.986;2024-01-16T00:07:13;98506.50;;;7.33;100.00
10310;BME280;5200;43.236;27.986;2024-01-16T00:09:39;98506.50;;;7.33;100.00
10310;BME280;5200;43.236;27.986;2024-01-16T00:12:07;98506.97;;;7.28;100.00
10310;BME280;5200;43.236;27.986;2024-01-16T00:14:35;98507.94;;;7.27;100.00
10310;BME280;5200;43.236;27.986;2024-01-16T00:17:02;98510.03;;;7.24;100.00
10310;BME280;5200;43.236;27.986;2024-01-16T00:19:29;98505.72;;;7.14;100.00
10310;BME280;5200;43.236;27.986;2024-01-16T00:21:57;98514.41;;;7.15;100.00
10310;BME280;5200;43.236;27.986;2024-01-16T00:24:25;98500.78;;;7.11;100.00
10310;BME280;5200;43.236;27.986;2024-01-16T00:26:52;98500.94;;;7.10;100.00
10310;BME280;5200;43.236;27.986;2024-01-16T00:29:19;98502.06;;;7.07;100.00
10310;BME280;5200;43.236;27.986;2024-01-16T00:31:46;98502.06;;;7.07;100.00
10310;BME280;5200;43.236;27.986;2024-01-16T00:34:14;98500.25;;;7.08;100.00
10310;BME280;5200;43.236;27.986;2024-01-16T00:36:40;98493.94;;;7.10;100.00
10310;BME280;5200;43.236;27.986;2024-01-16T00:39:09;98497.38;;;7.11;100.00
10310;BME280;5200;43.236;27.986;2024-01-16T00:41:35;98499.31;;;7.09;100.00
10310;BME280;5200;43.236;27.986;2024-01-16T00:44:02;98494.53;;;7.04;100.00
10310;BME280;5200;43.236;27.986;2024-01-16T00:46:29;98478.25;;;6.92;100.00
10310;BME280;5200;43.236;27.986;2024-01-16T00:48:56;98474.53;;;6.95;100.00
10310;BME280;5200;43.236;27.986;2024-01-16T00:51:23;98476.09;;;6.88;100.00
10310;BME280;5200;43.236;27.986;2024-01-16T00:53:49;98480.22;;;6.90;100.00
10310;BME280;5200;43.236;27.986;2024-01-16T00:56:18;98476.09;;;6.88;100.00
10310;BME280;5200;43.236;27.986;2024-01-16T00:58:44;98469.25;;;6.87;100.00
10310;BME280;5200;43.236;27.986;2024-01-16T01:01:11;98462.34;;;6.86;100.00
10310;BME280;5200;43.236;27.986;2024-01-16T01:03:38;98468.25;;;6.88;100.00
10310;BME280;5200;43.236;27.986;2024-01-16T01:06:05;98462.03;;;6.89;100.00
10310;BME280;5200;43.236;27.986;2024-01-16T01:08:32;98453.25;;;6.90;100.00
10310;BME280;5200;43.236;27.986;2024-01-16T01:10:59;98447.69;;;6.93;100.00
10310;BME280;5200;43.236;27.986;2024-01-16T01:13:27;98444.13;;;6.94;100.00
10310;BME280;5200;43.236;27.986;2024-01-16T01:15:54;98442.34;;;6.94;100.00
10310;BME280;5200;43.236;27.986;2024-01-16T01:18:21;98445.75;;;6.95;100.00
10310;BME280;5200;43.236;27.986;2024-01-16T01:20:48;98445.75;;;6.95;100.00
10310;BME280;5200;43.236;27.986;2024-01-16T01:23:15;98440.53;;;6.95;100.00
10310;BME280;5200;43.236;27.986;2024-01-16T01:25:42;98448.53;;;6.93;100.00
10310;BME280;5200;43.236;27.986;2024-01-16T01:28:09;98447.03;;;6.91;100.00
10310;BME280;5200;43.236;27.986;2024-01-16T01:30:38;98446.22;;;6.90;100.00
10310;BME280;5200;43.236;27.986;2024-01-16T01:33:05;98442.13;;;6.88;100.00
10310;BME280;5200;43.236;27.986;2024-01-16T01:35:32;98439.81;;;6.85;100.00
10310;BME280;5200;43.236;27.986;2024-01-16T01:37:59;98442.88;;;6.80;100.00
10310;BME280;5200;43.236;27.986;2024-01-16T01:40:25;98439.44;;;6.80;100.00
10310;BME280;5200;43.236;27.986;2024-01-16T01:42:52;98444.81;;;6.78;100.00
10310;BME280;5200;43.236;27.986;2024-01-16T01:45:19;98442.44;;;6.67;100.00
10310;BME280;5200;43.236;27.986;2024-01-16T01:47:48;98446.22;;;6.72;100.00
10310;BME280;5200;43.236;27.986;2024-01-16T01:50:15;98434.47;;;6.68;100.00
10310;BME280;5200;43.236;27.986;2024-01-16T01:52:43;98435.41;;;6.67;100.00
10310;BME280;5200;43.236;27.986;2024-01-16T01:55:12;98435.59;;;6.66;100.00
10310;BME280;5200;43.236;27.986;2024-01-16T01:57:40;98428.69;;;6.65;100.00
10310;BME280;5200;43.236;27.986;2024-01-16T02:00:09;98431.75;;;6.60;100.00
10310;BME280;5200;43.236;27.986;2024-01-16T02:02:36;98433.44;;;6.61;100.00
10310;BME280;5200;43.236;27.986;2024-01-16T02:05:05;98427.66;;;6.57;100.00
10310;BME280;5200;43.236;27.986;2024-01-16T02:07:33;98419.31;;;6.54;100.00
10310;BME280;5200;43.236;27.986;2024-01-16T02:10:01;98424.38;;;6.55;100.00
10310;BME280;5200;43.236;27.986;2024-01-16T02:12:29;98427.16;;;6.54;100.00
10310;BME280;5200;43.236;27.986;2024-01-16T02:14:56;98427.16;;;6.54;100.00
10310;BME280;5200;43.236;27.986;2024-01-16T02:17:22;98418.47;;;6.53;100.00
10310;BME280;5200;43.236;27.986;2024-01-16T02:19:49;98428.13;;;6.53;100.00
10310;BME280;5200;43.236;27.986;2024-01-16T02:22:20;98428.94;;;6.53;100.00
10310;BME280;5200;43.236;27.986;2024-01-16T02:24:49;98425.38;;;6.54;100.00
10310;BME280;5200;43.236;27.986;2024-01-16T02:27:16;98425.19;;;6.56;100.00
10310;BME280;5200;43.236;27.986;2024-01-16T02:29:43;98412.50;;;6.61;100.00
10310;BME280;5200;43.236;27.986;2024-01-16T02:32:11;98434.09;;;6.63;100.00
10310;BME280;5200;43.236;27.986;2024-01-16T02:34:39;98432.56;;;6.61;100.00
10310;BME280;5200;43.236;27.986;2024-01-16T02:37:06;98430.94;;;6.60;100.00
10310;BME280;5200;43.236;27.986;2024-01-16T02:39:33;98422.56;;;6.56;100.00
10310;BME280;5200;43.236;27.986;2024-01-16T02:42:01;98411.47;;;6.54;100.00
10310;BME280;5200;43.236;27.986;2024-01-16T02:44:28;98417.66;;;6.53;100.00
10310;BME280;5200;43.236;27.986;2024-01-16T02:46:55;98417.84;;;6.51;100.00
10310;BME280;5200;43.236;27.986;2024-01-16T02:49:22;98410.13;;;6.50;100.00
10310;BME280;5200;43.236;27.986;2024-01-16T02:51:51;98411.09;;;6.49;100.00
10310;BME280;5200;43.236;27.986;2024-01-16T02:54:18;98405.59;;;6.52;100.00
10310;BME280;5200;43.236;27.986;2024-01-16T02:56:45;98403.25;;;6.49;100.00
10310;BME280;5200;43.236;27.986;2024-01-16T02:59:13;98397.53;;;6.45;100.00
10310;BME280;5200;43.236;27.986;2024-01-16T03:01:40;98406.25;;;6.54;100.00
10310;BME280;5200;43.236;27.986;2024-01-16T03:04:07;98407.88;;;6.55;100.00
10310;BME280;5200;43.236;27.986;2024-01-16T03:06:34;98408.56;;;6.57;100.00
10310;BME280;5200;43.236;27.986;2024-01-16T03:09:01;98404.28;;;6.56;100.00
10310;BME280;5200;43.236;27.986;2024-01-16T03:11:28;98398.88;;;6.49;100.00
10310;BME280;5200;43.236;27.986;2024-01-16T03:13:57;98407.88;;;6.55;100.00
10310;BME280;5200;43.236;27.986;2024-01-16T03:16:26;98416.41;;;6.57;100.00
10310;BME280;5200;43.236;27.986;2024-01-16T03:18:53;98414.75;;;6.56;100.00
10310;BME280;5200;43.236;27.986;2024-01-16T03:21:20;98412.28;;;6.54;100.00
10310;BME280;5200;43.236;27.986;2024-01-16T03:23:47;98418.34;;;6.55;100.00
10310;BME280;5200;43.236;27.986;2024-01-16T03:26:14;98399.69;;;6.50;100.00
10310;BME280;5200;43.236;27.986;2024-01-16T03:28:41;98415.72;;;6.55;100.00
10310;BME280;5200;43.236;27.986;2024-01-16T03:31:08;98404.59;;;6.53;100.00
10310;BME280;5200;43.236;27.986;2024-01-16T03:33:36;98419.00;;;6.57;100.00
10310;BME280;5200;43.236;27.986;2024-01-16T03:36:07;98419.69;;;6.59;100.00
10310;BME280;5200;43.236;27.986;2024-01-16T03:38:34;98418.41;;;6.63;100.00
10310;BME280;5200;43.236;27.986;2024-01-16T03:41:02;98424.16;;;6.67;100.00
10310;BME280;5200;43.236;27.986;2024-01-16T03:43:29;98413.25;;;6.71;100.00
10310;BME280;5200;43.236;27.986;2024-01-16T03:45:56;98416.88;;;6.78;100.00
10310;BME280;5200;43.236;27.986;2024-01-16T03:48:23;98431.81;;;6.86;100.00
10310;BME280;5200;43.236;27.986;2024-01-16T03:50:52;98426.84;;;7.01;100.00
10310;BME280;5200;43.236;27.986;2024-01-16T03:53:19;98431.31;;;7.09;100.00
10310;BME280;5200;43.236;27.986;2024-01-16T03:55:47;98435.41;;;7.11;100.00
10310;BME280;5200;43.236;27.986;2024-01-16T03:58:15;98440.69;;;7.19;100.00
10310;BME280;5200;43.236;27.986;2024-01-16T04:00:42;98446.91;;;7.18;100.00
10310;BME280;5200;43.236;27.986;2024-01-16T04:03:09;98453.47;;;7.23;100.00
10310;BME280;5200;43.236;27.986;2024-01-16T04:05:36;98455.78;;;7.26;100.00
10310;BME280;5200;43.236;27.986;2024-01-16T04:08:05;98468.53;;;7.29;100.00
10310;BME280;5200;43.236;27.986;2024-01-16T04:10:31;98476.38;;;7.29;100.00
10310;BME280;5200;43.236;27.986;2024-01-16T04:13:00;98474.63;;;7.29;100.00
10310;BME280;5200;43.236;27.986;2024-01-16T04:15:27;98487.22;;;7.34;100.00
10310;BME280;5200;43.236;27.986;2024-01-16T04:17:54;98491.63;;;7.33;100.00
10310;BME280;5200;43.236;27.986;2024-01-16T04:20:21;98503.88;;;7.33;100.00
10310;BME280;5200;43.236;27.986;2024-01-16T04:22:48;98509.78;;;7.35;100.00
10310;BME280;5200;43.236;27.986;2024-01-16T04:25:17;98510.78;;;7.34;100.00
10310;BME280;5200;43.236;27.986;2024-01-16T04:27:43;98511.06;;;7.31;100.00
10310;BME280;5200;43.236;27.986;2024-01-16T04:30:12;98523.88;;;7.34;100.00
10310;BME280;5200;43.236;27.986;2024-01-16T04:32:39;98524.69;;;7.34;100.00
10310;BME280;5200;43.236;27.986;2024-01-16T04:35:06;98529.38;;;7.31;100.00
10310;BME280;5200;43.236;27.986;2024-01-16T04:37:33;98534.97;;;7.36;100.00
10310;BME280;5200;43.236;27.986;2024-01-16T04:40:00;98536.63;;;7.37;100.00
10310;BME280;5200;43.236;27.986;2024-01-16T04:42:27;98544.97;;;7.40;100.00
10310;BME280;5200;43.236;27.986;2024-01-16T04:44:54;98546.09;;;7.38;100.00
10310;BME280;5200;43.236;27.986;2024-01-16T04:47:20;98549.06;;;7.43;100.00
10310;BME280;5200;43.236;27.986;2024-01-16T04:49:47;98568.47;;;7.50;100.00
10310;BME280;5200;43.236;27.986;2024-01-16T04:52:14;98561.91;;;7.54;100.00
10310;BME280;5200;43.236;27.986;2024-01-16T04:54:41;98569.63;;;7.56;100.00
10310;BME280;5200;43.236;27.986;2024-01-16T04:57:08;98575.38;;;7.59;100.00
10310;BME280;5200;43.236;27.986;2024-01-16T04:59:36;98571.78;;;7.60;100.00
10310;BME280;5200;43.236;27.986;2024-01-16T05:02:03;98582.25;;;7.60;100.00
10310;BME280;5200;43.236;27.986;2024-01-16T05:04:29;98589.13;;;7.61;100.00
10310;BME280;5200;43.236;27.986;2024-01-16T05:06:56;98578.25;;;7.48;100.00
10310;BME280;5200;43.236;27.986;2024-01-16T05:09:23;98597.25;;;7.50;100.00
10310;BME280;5200;43.236;27.986;2024-01-16T05:11:50;98597.03;;;7.44;100.00
10310;BME280;5200;43.236;27.986;2024-01-16T05:14:17;98602.34;;;7.34;100.00
10310;BME280;5200;43.236;27.986;2024-01-16T05:16:45;98609.97;;;7.27;100.00
10310;BME280;5200;43.236;27.986;2024-01-16T05:19:12;98617.97;;;7.26;100.00
10310;BME280;5200;43.236;27.986;2024-01-16T05:21:40;98625.00;;;7.25;100.00
10310;BME280;5200;43.236;27.986;2024-01-16T05:24:07;98639.34;;;7.21;100.00
10310;BME280;5200;43.236;27.986;2024-01-16T05:26:34;98634.19;;;7.11;100.00
10310;BME280;5200;43.236;27.986;2024-01-16T05:29:01;98650.41;;;7.15;100.00
10310;BME280;5200;43.236;27.986;2024-01-16T05:31:28;98645.19;;;7.15;100.00
10310;BME280;5200;43.236;27.986;2024-01-16T05:33:56;98651.69;;;7.11;100.00
10310;BME280;5200;43.236;27.986;2024-01-16T05:36:23;98656.59;;;7.14;100.00
10310;BME280;5200;43.236;27.986;2024-01-16T05:38:51;98652.50;;;7.11;100.00
10310;BME280;5200;43.236;27.986;2024-01-16T05:41:18;98644.19;;;6.98;100.00
10310;BME280;5200;43.236;27.986;2024-01-16T05:43:45;98680.28;;;7.12;100.00
10310;BME280;5200;43.236;27.986;2024-01-16T05:46:12;98666.69;;;7.09;100.00
10310;BME280;5200;43.236;27.986;2024-01-16T05:48:39;98675.72;;;7.14;100.00
10310;BME280;5200;43.236;27.986;2024-01-16T05:51:07;98676.78;;;7.22;100.00
10310;BME280;5200;43.236;27.986;2024-01-16T05:53:34;98666.84;;;7.25;100.00
10310;BME280;5200;43.236;27.986;2024-01-16T05:56:01;98678.13;;;7.26;100.00
10310;BME280;5200;43.236;27.986;2024-01-16T05:58:28;98681.94;;;7.31;100.00
10310;BME280;5200;43.236;27.986;2024-01-16T06:00:55;98685.53;;;7.30;100.00
10310;BME280;5200;43.236;27.986;2024-01-16T06:03:22;98689.97;;;7.30;100.00
10310;BME280;5200;43.236;27.986;2024-01-16T06:05:48;98680.44;;;7.29;100.00
10310;BME280;5200;43.236;27.986;2024-01-16T06:08:17;98692.19;;;7.25;100.00
10310;BME280;5200;43.236;27.986;2024-01-16T06:10:45;98700.31;;;7.22;100.00
10310;BME280;5200;43.236;27.986;2024-01-16T06:13:12;98706.16;;;7.15;100.00
10310;BME280;5200;43.236;27.986;2024-01-16T06:15:39;98723.34;;;7.18;100.00
10310;BME280;5200;43.236;27.986;2024-01-16T06:18:06;98736.44;;;7.18;100.00
10310;BME280;5200;43.236;27.986;2024-01-16T06:20:34;98743.16;;;7.20;100.00
10310;BME280;5200;43.236;27.986;2024-01-16T06:23:01;98761.59;;;7.19;100.00
10310;BME280;5200;43.236;27.986;2024-01-16T06:25:31;98732.22;;;7.07;100.00
10310;BME280;5200;43.236;27.986;2024-01-16T06:27:58;98737.75;;;7.04;100.00
10310;BME280;5200;43.236;27.986;2024-01-16T06:30:25;98771.69;;;7.14;100.00
10310;BME280;5200;43.236;27.986;2024-01-16T06:32:52;98765.03;;;7.02;100.00
10310;BME280;5200;43.236;27.986;2024-01-16T06:35:19;98769.00;;;6.96;100.00
10310;BME280;5200;43.236;27.986;2024-01-16T06:37:46;98789.81;;;6.97;100.00
10310;BME280;5200;43.236;27.986;2024-01-16T06:40:13;98781.28;;;6.95;100.00
10310;BME280;5200;43.236;27.986;2024-01-16T06:42:42;98802.75;;;6.99;100.00
10310;BME280;5200;43.236;27.986;2024-01-16T06:45:09;98803.00;;;6.96;100.00
10310;BME280;5200;43.236;27.986;2024-01-16T06:47:38;98797.31;;;6.83;100.00
10310;BME280;5200;43.236;27.986;2024-01-16T06:50:07;98804.75;;;6.77;100.00
10310;BME280;5200;43.236;27.986;2024-01-16T06:52:34;98825.63;;;6.87;100.00
10310;BME280;5200;43.236;27.986;2024-01-16T06:55:00;98809.03;;;6.69;100.00
10310;BME280;5200;43.236;27.986;2024-01-16T06:57:27;98832.25;;;6.82;100.00
10310;BME280;5200;43.236;27.986;2024-01-16T06:59:56;98839.97;;;6.73;100.00
10310;BME280;5200;43.236;27.986;2024-01-16T07:02:23;98876.44;;;6.85;100.00
10310;BME280;5200;43.236;27.986;2024-01-16T07:04:49;98878.47;;;6.81;100.00
10310;BME280;5200;43.236;27.986;2024-01-16T07:07:16;98846.59;;;6.58;100.00
10310;BME280;5200;43.236;27.986;2024-01-16T07:09:43;98903.13;;;6.78;100.00
10310;BME280;5200;43.236;27.986;2024-01-16T07:12:10;98913.44;;;6.80;100.00
10310;BME280;5200;43.236;27.986;2024-01-16T07:14:37;98930.38;;;6.76;100.00
10310;BME280;5200;43.236;27.986;2024-01-16T07:17:06;98912.50;;;6.71;100.00
10310;BME280;5200;43.236;27.986;2024-01-16T07:19:34;98926.94;;;6.75;100.00
10310;BME280;5200;43.236;27.986;2024-01-16T07:22:00;98928.84;;;6.73;100.00
10310;BME280;5200;43.236;27.986;2024-01-16T07:24:27;98941.81;;;6.75;100.00
10310;BME280;5200;43.236;27.986;2024-01-16T07:26:54;98946.59;;;6.80;100.00
10310;BME280;5200;43.236;27.986;2024-01-16T07:29:21;98946.75;;;6.78;100.00
10310;BME280;5200;43.236;27.986;2024-01-16T07:31:48;98952.25;;;6.85;100.00
10310;BME280;5200;43.236;27.986;2024-01-16T07:34:16;98965.03;;;6.88;100.00
10310;BME280;5200;43.236;27.986;2024-01-16T07:36:47;98965.72;;;6.90;100.00
10310;BME280;5200;43.236;27.986;2024-01-16T07:39:14;98965.44;;;6.83;100.00
10310;BME280;5200;43.236;27.986;2024-01-16T07:41:41;98957.63;;;6.73;100.00
10310;BME280;5200;43.236;27.986;2024-01-16T07:44:07;98980.44;;;6.81;100.00
10310;BME280;5200;43.236;27.986;2024-01-16T07:46:34;98973.97;;;6.95;100.00
10310;BME280;5200;43.236;27.986;2024-01-16T07:49:01;98996.28;;;6.89;100.00
10310;BME280;5200;43.236;27.986;2024-01-16T07:51:29;99002.75;;;6.85;100.00
10310;BME280;5200;43.236;27.986;2024-01-16T07:54:05;98989.81;;;6.74;100.00
10310;BME280;5200;43.236;27.986;2024-01-16T07:56:32;98994.34;;;6.72;100.00
10310;BME280;5200;43.236;27.986;2024-01-16T07:58:59;98991.72;;;6.62;100.00
10310;BME280;5200;43.236;27.986;2024-01-16T08:01:26;98987.59;;;6.30;100.00
10310;BME280;5200;43.236;27.986;2024-01-16T08:03:54;99019.34;;;6.35;100.00
10310;BME280;5200;43.236;27.986;2024-01-16T08:06:21;99006.41;;;6.24;100.00
10310;BME280;5200;43.236;27.986;2024-01-16T08:08:49;99022.06;;;6.24;100.00
10310;BME280;5200;43.236;27.986;2024-01-16T08:11:16;99031.69;;;6.14;100.00
10310;BME280;5200;43.236;27.986;2024-01-16T08:13:43;99044.97;;;6.11;100.00
10310;BME280;5200;43.236;27.986;2024-01-16T08:16:10;99039.31;;;5.96;100.00
10310;BME280;5200;43.236;27.986;2024-01-16T08:18:37;99056.53;;;5.87;100.00
10310;BME280;5200;43.236;27.986;2024-01-16T08:21:04;99078.09;;;6.01;100.00
10310;BME280;5200;43.236;27.986;2024-01-16T08:23:30;99081.25;;;6.04;100.00
10310;BME280;5200;43.236;27.986;2024-01-16T08:25:58;99091.53;;;5.96;100.00
10310;BME280;5200;43.236;27.986;2024-01-16T08:28:26;99094.75;;;5.88;100.00
10310;BME280;5200;43.236;27.986;2024-01-16T08:30:53;99111.13;;;5.90;100.00
10310;BME280;5200;43.236;27.986;2024-01-16T08:33:20;99105.22;;;5.88;100.00
10310;BME280;5200;43.236;27.986;2024-01-16T08:35:47;99125.81;;;5.91;100.00
10310;BME280;5200;43.236;27.986;2024-01-16T08:38:14;99124.63;;;5.75;100.00
10310;BME280;5200;43.236;27.986;2024-01-16T08:40:41;99116.59;;;5.66;100.00
10310;BME280;5200;43.236;27.986;2024-01-16T08:43:09;99146.47;;;5.73;100.00
10310;BME280;5200;43.236;27.986;2024-01-16T08:45:36;99155.13;;;5.74;100.00
10310;BME280;5200;43.236;27.986;2024-01-16T08:48:03;99169.00;;;5.75;100.00
10310;BME280;5200;43.236;27.986;2024-01-16T08:50:30;99139.00;;;5.69;100.00
10310;BME280;5200;43.236;27.986;2024-01-16T08:52:58;99150.91;;;5.62;100.00
10310;BME280;5200;43.236;27.986;2024-01-16T08:55:24;99141.22;;;5.53;100.00
10310;BME280;5200;43.236;27.986;2024-01-16T08:57:51;99165.09;;;5.69;100.00
10310;BME280;5200;43.236;27.986;2024-01-16T09:00:20;99170.69;;;5.64;100.00
10310;BME280;5200;43.236;27.986;2024-01-16T09:02:47;99181.03;;;5.66;100.00
10310;BME280;5200;43.236;27.986;2024-01-16T09:05:14;99166.84;;;5.59;100.00
10310;BME280;5200;43.236;27.986;2024-01-16T09:07:41;99171.38;;;5.45;100.00
10310;BME280;5200;43.236;27.986;2024-01-16T09:10:08;99179.06;;;5.26;100.00
10310;BME280;5200;43.236;27.986;2024-01-16T09:12:35;99166.06;;;5.15;100.00
10310;BME280;5200;43.236;27.986;2024-01-16T09:15:02;99184.91;;;5.18;100.00
10310;BME280;5200;43.236;27.986;2024-01-16T09:17:31;99185.28;;;5.14;100.00
10310;BME280;5200;43.236;27.986;2024-01-16T09:19:58;99168.22;;;4.98;100.00
10310;BME280;5200;43.236;27.986;2024-01-16T09:22:25;99179.03;;;4.94;100.00
10310;BME280;5200;43.236;27.986;2024-01-16T09:24:52;99187.19;;;5.00;100.00
10310;BME280;5200;43.236;27.986;2024-01-16T09:27:19;99179.16;;;4.92;100.00
10310;BME280;5200;43.236;27.986;2024-01-16T09:29:46;99201.66;;;5.04;100.00
10310;BME280;5200;43.236;27.986;2024-01-16T09:32:13;99194.91;;;5.02;100.00
10310;BME280;5200;43.236;27.986;2024-01-16T09:34:41;99229.34;;;5.17;100.00
10310;BME280;5200;43.236;27.986;2024-01-16T09:37:08;99205.66;;;5.20;100.00
10310;BME280;5200;43.236;27.986;2024-01-16T09:39:35;99206.31;;;5.33;100.00
10310;BME280;5200;43.236;27.986;2024-01-16T09:42:03;99228.53;;;5.60;100.00
10310;BME280;5200;43.236;27.986;2024-01-16T09:44:30;99216.56;;;5.78;100.00
10310;BME280;5200;43.236;27.986;2024-01-16T09:46:58;99203.06;;;5.73;100.00
10310;BME280;5200;43.236;27.986;2024-01-16T09:49:25;99209.06;;;6.06;100.00
10310;BME280;5200;43.236;27.986;2024-01-16T09:51:55;99179.53;;;6.05;100.00
10310;BME280;5200;43.236;27.986;2024-01-16T09:54:24;99187.63;;;6.23;100.00
10310;BME280;5200;43.236;27.986;2024-01-16T09:56:54;99223.50;;;6.52;100.00
10310;BME280;5200;43.236;27.986;2024-01-16T09:59:25;99186.91;;;6.52;100.00
10310;BME280;5200;43.236;27.986;2024-01-16T10:01:54;99195.78;;;6.70;97.52
10310;BME280;5200;43.236;27.986;2024-01-16T10:04:22;99194.66;;;6.63;95.48
10310;BME280;5200;43.236;27.986;2024-01-16T10:06:49;99233.78;;;6.84;95.11
10310;BME280;5200;43.236;27.986;2024-01-16T10:09:19;99234.75;;;6.83;94.95
10310;BME280;5200;43.236;27.986;2024-01-16T10:11:47;99261.59;;;6.85;93.72
10310;BME280;5200;43.236;27.986;2024-01-16T10:14:16;99255.00;;;6.91;93.58
10310;BME280;5200;43.236;27.986;2024-01-16T10:16:56;99261.47;;;6.87;91.93
10310;BME280;5200;43.236;27.986;2024-01-16T10:19:24;99241.94;;;6.91;89.15
10310;BME280;5200;43.236;27.986;2024-01-16T10:21:51;99256.91;;;6.89;87.70
10310;BME280;5200;43.236;27.986;2024-01-16T10:24:20;99297.47;;;7.04;86.97
10310;BME280;5200;43.236;27.986;2024-01-16T10:26:57;99301.19;;;7.11;85.94
10310;BME280;5200;43.236;27.986;2024-01-16T10:29:26;99288.97;;;7.22;83.97
10310;BME280;5200;43.236;27.986;2024-01-16T10:31:53;99280.59;;;7.37;80.06
10310;BME280;5200;43.236;27.986;2024-01-16T10:34:20;99294.56;;;7.57;79.26
10310;BME280;5200;43.236;27.986;2024-01-16T10:36:49;99297.59;;;7.82;79.38
10310;BME280;5200;43.236;27.986;2024-01-16T10:39:16;99275.28;;;8.07;77.07
10310;BME280;5200;43.236;27.986;2024-01-16T10:41:53;99278.03;;;8.05;74.77
10310;BME280;5200;43.236;27.986;2024-01-16T10:44:21;99314.25;;;8.39;72.32
10310;BME280;5200;43.236;27.986;2024-01-16T10:46:48;99305.84;;;8.55;69.30
10310;BME280;5200;43.236;27.986;2024-01-16T10:49:15;99283.50;;;8.61;65.29
10310;BME280;5200;43.236;27.986;2024-01-16T10:51:43;99287.75;;;8.62;65.83
10310;BME280;5200;43.236;27.986;2024-01-16T10:54:13;99314.59;;;8.83;65.09
10310;BME280;5200;43.236;27.986;2024-01-16T10:56:44;99309.03;;;8.96;63.62
10310;BME280;5200;43.236;27.986;2024-01-16T10:59:18;99292.75;;;8.93;62.33
10310;BME280;5200;43.236;27.986;2024-01-16T11:01:48;99310.19;;;9.12;63.38
10310;BME280;5200;43.236;27.986;2024-01-16T11:04:17;99290.44;;;9.17;63.24
10310;BME280;5200;43.236;27.986;2024-01-16T11:06:44;99321.22;;;9.43;60.30
10310;BME280;5200;43.236;27.986;2024-01-16T11:09:12;99315.16;;;9.42;58.13
10310;BME280;5200;43.236;27.986;2024-01-16T11:11:43;99333.06;;;9.29;58.81
10310;BME280;5200;43.236;27.986;2024-01-16T11:14:12;99339.22;;;9.38;56.94
10310;BME280;5200;43.236;27.986;2024-01-16T11:16:42;99341.28;;;9.44;56.83
10310;BME280;5200;43.236;27.986;2024-01-16T11:19:10;99330.63;;;9.45;56.17
10310;BME280;5200;43.236;27.986;2024-01-16T11:21:38;99339.72;;;9.51;55.77
10310;BME280;5200;43.236;27.986;2024-01-16T11:24:06;99340.56;;;9.69;54.47
10310;BME280;5200;43.236;27.986;2024-01-16T11:26:34;99320.81;;;9.65;52.27
10310;BME280;5200;43.236;27.986;2024-01-16T11:29:35;99348.53;;;9.78;52.06
10310;BME280;5200;43.236;27.986;2024-01-16T11:32:07;99344.53;;;9.73;49.63
10310;BME280;5200;43.236;27.986;2024-01-16T11:34:53;99372.16;;;9.78;50.99
10310;BME280;5200;43.236;27.986;2024-01-16T11:37:28;99357.22;;;9.78;50.23
10310;BME280;5200;43.236;27.986;2024-01-16T11:40:22;99377.31;;;9.97;48.66
10310;BME280;5200;43.236;27.986;2024-01-16T11:42:52;99370.22;;;9.80;48.87
10310;BME280;5200;43.236;27.986;2024-01-16T11:45:47;99392.50;;;9.76;49.53
10310;BME280;5200;43.236;27.986;2024-01-16T11:48:17;99376.06;;;9.73;47.59
10310;BME280;5200;43.236;27.986;2024-01-16T11:50:45;99376.38;;;9.70;48.11
10310;BME280;5200;43.236;27.986;2024-01-16T11:53:36;99390.56;;;9.78;47.60
10310;BME280;5200;43.236;27.986;2024-01-16T12:01:57;99407.34;;;9.02;49.06
10310;BME280;5200;43.236;27.986;2024-01-16T12:04:26;99418.66;;;9.02;49.38
10310;BME280;5200;43.236;27.986;2024-01-16T12:07:00;99426.69;;;8.81;49.64
10310;BME280;5200;43.236;27.986;2024-01-16T12:09:27;99445.09;;;8.62;51.10
10310;BME280;5200;43.236;27.986;2024-01-16T12:11:59;99441.34;;;8.35;51.73
10310;BME280;5200;43.236;27.986;2024-01-16T12:14:27;99436.06;;;8.16;53.59
10310;BME280;5200;43.236;27.986;2024-01-16T12:17:08;99463.06;;;8.07;54.64
10310;BME280;5200;43.236;27.986;2024-01-16T12:19:36;99460.19;;;8.00;55.89
10310;BME280;5200;43.236;27.986;2024-01-16T12:22:08;99449.94;;;7.87;57.42
10310;BME280;5200;43.236;27.986;2024-01-16T12:24:35;99453.03;;;7.71;58.65
10310;BME280;5200;43.236;27.986;2024-01-16T12:27:02;99467.03;;;7.81;60.59
10310;BME280;5200;43.236;27.986;2024-01-16T12:29:29;99466.75;;;7.94;63.25
10310;BME280;5200;43.236;27.986;2024-01-16T12:32:05;99464.84;;;7.96;63.79
10310;BME280;5200;43.236;27.986;2024-01-16T12:34:32;99477.66;;;7.99;64.06
10310;BME280;5200;43.236;27.986;2024-01-16T12:37:05;99475.59;;;7.93;64.30
10310;BME280;5200;43.236;27.986;2024-01-16T12:39:33;99476.84;;;7.99;64.35
10310;BME280;5200;43.236;27.986;2024-01-16T12:42:01;99475.75;;;8.01;64.04
10310;BME280;5200;43.236;27.986;2024-01-16T12:44:29;99483.34;;;8.04;63.79
10310;BME280;5200;43.236;27.986;2024-01-16T12:46:56;99512.03;;;8.06;63.47
10310;BME280;5200;43.236;27.986;2024-01-16T12:49:24;99507.47;;;7.98;63.60
10310;BME280;5200;43.236;27.986;2024-01-16T12:51:51;99518.19;;;7.86;64.11
10310;BME280;5200;43.236;27.986;2024-01-16T12:54:21;99514.88;;;7.83;63.59
10310;BME280;5200;43.236;27.986;2024-01-16T12:56:58;99516.31;;;7.67;60.88
10310;BME280;5200;43.236;27.986;2024-01-16T12:59:27;99514.47;;;7.57;60.26
10310;BME280;5200;43.236;27.986;2024-01-16T13:01:56;99530.97;;;7.48;58.74
10310;BME280;5200;43.236;27.986;2024-01-16T13:04:23;99511.94;;;7.25;56.77
10310;BME280;5200;43.236;27.986;2024-01-16T13:06:49;99519.09;;;7.02;57.05
10310;BME280;5200;43.236;27.986;2024-01-16T13:09:16;99557.94;;;7.07;57.87
10310;BME280;5200;43.236;27.986;2024-01-16T13:11:50;99549.81;;;6.89;58.90
10310;BME280;5200;43.236;27.986;2024-01-16T13:14:18;99572.41;;;6.90;59.09